sensor_id;sensor_type;location;lat;lon;timestamp;temperature;humidity
14771;DHT22;7477;45.222;5.688;2023-05-07T00:00:13;19.10;90.00
14771;DHT22;7477;45.222;5.688;2023-05-07T00:03:35;19.10;89.50
14771;DHT22;7477;45.222;5.688;2023-05-07T00:06:54;19.00;90.00
14771;DHT22;7477;45.222;5.688;2023-05-07T00:10:14;19.00;90.70
14771;DHT22;7477;45.222;5.688;2023-05-07T00:13:33;19.00;91.20
14771;DHT22;7477;45.222;5.688;2023-05-07T00:16:55;18.90;92.00
14771;DHT22;7477;45.222;5.688;2023-05-07T00:20:15;18.70;92.90
14771;DHT22;7477;45.222;5.688;2023-05-07T00:23:34;18.70;92.20
14771;DHT22;7477;45.222;5.688;2023-05-07T00:26:54;18.60;92.80
14771;DHT22;7477;45.222;5.688;2023-05-07T00:30:13;18.50;92.40
14771;DHT22;7477;45.222;5.688;2023-05-07T00:33:32;18.50;92.30
14771;DHT22;7477;45.222;5.688;2023-05-07T00:36:51;18.50;92.60
14771;DHT22;7477;45.222;5.688;2023-05-07T00:40:10;18.40;93.00
14771;DHT22;7477;45.222;5.688;2023-05-07T00:43:30;18.50;93.20
14771;DHT22;7477;45.222;5.688;2023-05-07T00:46:51;18.40;93.40
14771;DHT22;7477;45.222;5.688;2023-05-07T00:50:10;18.40;93.40
14771;DHT22;7477;45.222;5.688;2023-05-07T00:53:31;18.40;92.90
14771;DHT22;7477;45.222;5.688;2023-05-07T00:56:50;18.30;92.20
14771;DHT22;7477;45.222;5.688;2023-05-07T01:00:11;18.30;92.50
14771;DHT22;7477;45.222;5.688;2023-05-07T01:03:31;18.30;92.50
14771;DHT22;7477;45.222;5.688;2023-05-07T01:06:51;18.30;92.30
14771;DHT22;7477;45.222;5.688;2023-05-07T01:10:12;18.30;93.70
14771;DHT22;7477;45.222;5.688;2023-05-07T01:13:31;18.20;94.80
14771;DHT22;7477;45.222;5.688;2023-05-07T01:16:51;18.00;95.10
14771;DHT22;7477;45.222;5.688;2023-05-07T01:20:11;17.90;94.90
14771;DHT22;7477;45.222;5.688;2023-05-07T01:23:30;18.00;95.10
14771;DHT22;7477;45.222;5.688;2023-05-07T01:26:50;18.00;93.80
14771;DHT22;7477;45.222;5.688;2023-05-07T01:30:09;18.10;94.10
14771;DHT22;7477;45.222;5.688;2023-05-07T01:33:31;18.10;93.80
14771;DHT22;7477;45.222;5.688;2023-05-07T01:36:54;18.00;92.90
14771;DHT22;7477;45.222;5.688;2023-05-07T01:40:15;18.00;92.20
14771;DHT22;7477;45.222;5.688;2023-05-07T01:43:34;18.20;92.40
14771;DHT22;7477;45.222;5.688;2023-05-07T01:46:54;18.10;92.00
14771;DHT22;7477;45.222;5.688;2023-05-07T01:50:16;18.00;92.10
14771;DHT22;7477;45.222;5.688;2023-05-07T01:53:38;18.00;92.50
14771;DHT22;7477;45.222;5.688;2023-05-07T01:56:57;18.00;92.30
14771;DHT22;7477;45.222;5.688;2023-05-07T02:00:17;18.10;92.30
14771;DHT22;7477;45.222;5.688;2023-05-07T02:03:36;18.00;92.90
14771;DHT22;7477;45.222;5.688;2023-05-07T02:06:56;17.80;93.10
14771;DHT22;7477;45.222;5.688;2023-05-07T02:10:15;17.80;93.70
14771;DHT22;7477;45.222;5.688;2023-05-07T02:13:34;17.80;94.50
14771;DHT22;7477;45.222;5.688;2023-05-07T02:16:53;17.70;94.90
14771;DHT22;7477;45.222;5.688;2023-05-07T02:20:12;17.60;95.30
14771;DHT22;7477;45.222;5.688;2023-05-07T02:23:32;17.50;95.70
14771;DHT22;7477;45.222;5.688;2023-05-07T02:26:51;17.50;95.80
14771;DHT22;7477;45.222;5.688;2023-05-07T02:30:11;17.50;95.60
14771;DHT22;7477;45.222;5.688;2023-05-07T02:33:30;17.50;94.90
14771;DHT22;7477;45.222;5.688;2023-05-07T02:36:49;17.30;94.30
14771;DHT22;7477;45.222;5.688;2023-05-07T02:40:09;17.40;93.70
14771;DHT22;7477;45.222;5.688;2023-05-07T02:43:29;17.40;94.30
14771;DHT22;7477;45.222;5.688;2023-05-07T02:46:48;17.30;94.60
14771;DHT22;7477;45.222;5.688;2023-05-07T02:50:07;17.20;95.40
14771;DHT22;7477;45.222;5.688;2023-05-07T02:53:26;17.20;95.80
14771;DHT22;7477;45.222;5.688;2023-05-07T02:56:46;17.20;96.50
14771;DHT22;7477;45.222;5.688;2023-05-07T03:00:17;17.10;97.20
14771;DHT22;7477;45.222;5.688;2023-05-07T03:03:36;17.00;97.60
14771;DHT22;7477;45.222;5.688;2023-05-07T03:06:55;16.90;97.50
14771;DHT22;7477;45.222;5.688;2023-05-07T03:10:14;16.90;97.10
14771;DHT22;7477;45.222;5.688;2023-05-07T03:13:34;16.90;97.30
14771;DHT22;7477;45.222;5.688;2023-05-07T03:16:53;16.90;98.10
14771;DHT22;7477;45.222;5.688;2023-05-07T03:20:12;16.90;98.30
14771;DHT22;7477;45.222;5.688;2023-05-07T03:23:32;16.90;98.50
14771;DHT22;7477;45.222;5.688;2023-05-07T03:26:51;16.80;98.60
14771;DHT22;7477;45.222;5.688;2023-05-07T03:30:10;16.80;98.80
14771;DHT22;7477;45.222;5.688;2023-05-07T03:33:32;16.80;99.00
14771;DHT22;7477;45.222;5.688;2023-05-07T03:36:52;16.80;99.00
14771;DHT22;7477;45.222;5.688;2023-05-07T03:40:11;16.80;99.30
14771;DHT22;7477;45.222;5.688;2023-05-07T03:43:31;16.70;99.50
14771;DHT22;7477;45.222;5.688;2023-05-07T03:46:50;16.90;99.20
14771;DHT22;7477;45.222;5.688;2023-05-07T03:50:09;16.70;98.90
14771;DHT22;7477;45.222;5.688;2023-05-07T03:53:29;16.60;98.70
14771;DHT22;7477;45.222;5.688;2023-05-07T03:56:48;16.70;98.70
14771;DHT22;7477;45.222;5.688;2023-05-07T04:00:08;16.70;98.90
14771;DHT22;7477;45.222;5.688;2023-05-07T04:03:27;16.60;98.70
14771;DHT22;7477;45.222;5.688;2023-05-07T04:06:47;16.60;98.90
14771;DHT22;7477;45.222;5.688;2023-05-07T04:10:06;16.50;98.80
14771;DHT22;7477;45.222;5.688;2023-05-07T04:13:26;16.50;98.80
14771;DHT22;7477;45.222;5.688;2023-05-07T04:16:45;16.40;98.90
14771;DHT22;7477;45.222;5.688;2023-05-07T04:20:05;16.40;99.10
14771;DHT22;7477;45.222;5.688;2023-05-07T04:23:26;16.30;99.30
14771;DHT22;7477;45.222;5.688;2023-05-07T04:26:45;16.30;99.40
14771;DHT22;7477;45.222;5.688;2023-05-07T04:30:05;16.30;99.60
14771;DHT22;7477;45.222;5.688;2023-05-07T04:33:25;16.20;99.80
14771;DHT22;7477;45.222;5.688;2023-05-07T04:36:44;16.10;99.90
14771;DHT22;7477;45.222;5.688;2023-05-07T04:40:05;16.10;99.90
14771;DHT22;7477;45.222;5.688;2023-05-07T04:43:25;16.10;99.90
14771;DHT22;7477;45.222;5.688;2023-05-07T04:46:44;16.10;99.90
14771;DHT22;7477;45.222;5.688;2023-05-07T04:50:04;16.00;99.90
14771;DHT22;7477;45.222;5.688;2023-05-07T04:53:23;16.00;99.90
14771;DHT22;7477;45.222;5.688;2023-05-07T04:56:43;16.00;99.90
14771;DHT22;7477;45.222;5.688;2023-05-07T05:00:02;16.10;99.90
14771;DHT22;7477;45.222;5.688;2023-05-07T05:03:23;16.00;99.90
14771;DHT22;7477;45.222;5.688;2023-05-07T05:06:43;16.00;99.90
14771;DHT22;7477;45.222;5.688;2023-05-07T05:10:04;16.00;99.90
14771;DHT22;7477;45.222;5.688;2023-05-07T05:13:24;16.00;99.90
14771;DHT22;7477;45.222;5.688;2023-05-07T05:16:43;16.00;99.90
14771;DHT22;7477;45.222;5.688;2023-05-07T05:20:03;16.00;99.90
14771;DHT22;7477;45.222;5.688;2023-05-07T05:23:22;15.90;99.90
14771;DHT22;7477;45.222;5.688;2023-05-07T05:26:42;15.90;99.90
14771;DHT22;7477;45.222;5.688;2023-05-07T05:30:01;16.00;99.90
14771;DHT22;7477;45.222;5.688;2023-05-07T05:33:20;16.00;99.90
14771;DHT22;7477;45.222;5.688;2023-05-07T05:36:39;15.90;99.90
14771;DHT22;7477;45.222;5.688;2023-05-07T05:39:58;16.00;99.90
14771;DHT22;7477;45.222;5.688;2023-05-07T05:43:18;15.90;99.90
14771;DHT22;7477;45.222;5.688;2023-05-07T05:46:37;15.90;99.90
14771;DHT22;7477;45.222;5.688;2023-05-07T05:49:56;15.90;99.90
14771;DHT22;7477;45.222;5.688;2023-05-07T05:53:15;16.00;99.90
14771;DHT22;7477;45.222;5.688;2023-05-07T05:56:35;16.00;99.90
14771;DHT22;7477;45.222;5.688;2023-05-07T05:59:54;16.00;99.90
14771;DHT22;7477;45.222;5.688;2023-05-07T06:03:14;16.00;99.90
14771;DHT22;7477;45.222;5.688;2023-05-07T06:06:33;16.00;99.90
14771;DHT22;7477;45.222;5.688;2023-05-07T06:09:53;16.10;99.90
14771;DHT22;7477;45.222;5.688;2023-05-07T06:13:12;16.10;99.90
14771;DHT22;7477;45.222;5.688;2023-05-07T06:16:31;16.30;99.90
14771;DHT22;7477;45.222;5.688;2023-05-07T06:19:51;16.40;99.90
14771;DHT22;7477;45.222;5.688;2023-05-07T06:23:11;16.30;99.90
14771;DHT22;7477;45.222;5.688;2023-05-07T06:26:30;16.40;99.90
14771;DHT22;7477;45.222;5.688;2023-05-07T06:29:49;16.40;99.30
14771;DHT22;7477;45.222;5.688;2023-05-07T06:33:09;16.60;99.70
14771;DHT22;7477;45.222;5.688;2023-05-07T06:36:28;16.70;99.90
14771;DHT22;7477;45.222;5.688;2023-05-07T06:39:48;16.80;99.90
14771;DHT22;7477;45.222;5.688;2023-05-07T06:43:07;16.90;99.90
14771;DHT22;7477;45.222;5.688;2023-05-07T06:46:27;16.90;99.90
14771;DHT22;7477;45.222;5.688;2023-05-07T06:49:46;16.90;99.90
14771;DHT22;7477;45.222;5.688;2023-05-07T06:53:06;17.10;99.90
14771;DHT22;7477;45.222;5.688;2023-05-07T06:56:25;17.20;99.90
14771;DHT22;7477;45.222;5.688;2023-05-07T06:59:44;17.20;99.90
14771;DHT22;7477;45.222;5.688;2023-05-07T07:03:03;17.10;99.90
14771;DHT22;7477;45.222;5.688;2023-05-07T07:06:22;17.20;99.50
14771;DHT22;7477;45.222;5.688;2023-05-07T07:09:41;17.30;99.30
14771;DHT22;7477;45.222;5.688;2023-05-07T07:13:00;17.40;99.30
14771;DHT22;7477;45.222;5.688;2023-05-07T07:16:21;17.40;99.00
14771;DHT22;7477;45.222;5.688;2023-05-07T07:19:40;17.40;98.20
14771;DHT22;7477;45.222;5.688;2023-05-07T07:22:59;17.40;98.20
14771;DHT22;7477;45.222;5.688;2023-05-07T07:26:19;17.50;98.30
14771;DHT22;7477;45.222;5.688;2023-05-07T07:29:38;17.50;97.90
14771;DHT22;7477;45.222;5.688;2023-05-07T07:32:57;17.60;97.70
14771;DHT22;7477;45.222;5.688;2023-05-07T07:36:21;17.60;97.60
14771;DHT22;7477;45.222;5.688;2023-05-07T07:39:40;17.70;97.80
14771;DHT22;7477;45.222;5.688;2023-05-07T07:42:59;17.80;97.70
14771;DHT22;7477;45.222;5.688;2023-05-07T07:46:20;17.90;97.80
14771;DHT22;7477;45.222;5.688;2023-05-07T07:49:39;18.00;97.40
14771;DHT22;7477;45.222;5.688;2023-05-07T07:52:58;18.20;97.10
14771;DHT22;7477;45.222;5.688;2023-05-07T07:56:17;18.20;96.70
14771;DHT22;7477;45.222;5.688;2023-05-07T07:59:36;18.30;96.80
14771;DHT22;7477;45.222;5.688;2023-05-07T08:02:56;18.30;97.30
14771;DHT22;7477;45.222;5.688;2023-05-07T08:06:15;18.40;96.70
14771;DHT22;7477;45.222;5.688;2023-05-07T08:09:34;18.40;96.80
14771;DHT22;7477;45.222;5.688;2023-05-07T08:12:54;18.30;96.70
14771;DHT22;7477;45.222;5.688;2023-05-07T08:16:13;18.30;96.90
14771;DHT22;7477;45.222;5.688;2023-05-07T08:19:33;17.40;96.40
14771;DHT22;7477;45.222;5.688;2023-05-07T08:22:52;18.30;97.00
14771;DHT22;7477;45.222;5.688;2023-05-07T08:26:12;18.40;97.30
14771;DHT22;7477;45.222;5.688;2023-05-07T08:29:31;18.40;97.00
14771;DHT22;7477;45.222;5.688;2023-05-07T08:32:50;18.40;97.10
14771;DHT22;7477;45.222;5.688;2023-05-07T08:36:09;18.40;97.20
14771;DHT22;7477;45.222;5.688;2023-05-07T08:39:28;18.50;97.50
14771;DHT22;7477;45.222;5.688;2023-05-07T08:42:49;18.50;97.10
14771;DHT22;7477;45.222;5.688;2023-05-07T08:46:09;18.50;97.40
14771;DHT22;7477;45.222;5.688;2023-05-07T08:49:33;18.50;97.10
14771;DHT22;7477;45.222;5.688;2023-05-07T08:52:53;18.50;97.10
14771;DHT22;7477;45.222;5.688;2023-05-07T08:56:13;18.50;96.90
14771;DHT22;7477;45.222;5.688;2023-05-07T08:59:34;18.50;97.10
14771;DHT22;7477;45.222;5.688;2023-05-07T09:02:53;18.40;97.20
14771;DHT22;7477;45.222;5.688;2023-05-07T09:06:13;18.40;97.80
14771;DHT22;7477;45.222;5.688;2023-05-07T09:09:33;18.40;98.20
14771;DHT22;7477;45.222;5.688;2023-05-07T09:12:53;18.40;97.80
14771;DHT22;7477;45.222;5.688;2023-05-07T09:16:13;18.40;98.40
14771;DHT22;7477;45.222;5.688;2023-05-07T09:19:33;18.50;98.50
14771;DHT22;7477;45.222;5.688;2023-05-07T09:22:52;18.60;98.80
14771;DHT22;7477;45.222;5.688;2023-05-07T09:26:14;18.60;99.30
14771;DHT22;7477;45.222;5.688;2023-05-07T09:29:33;18.70;99.10
14771;DHT22;7477;45.222;5.688;2023-05-07T09:32:54;18.70;99.50
14771;DHT22;7477;45.222;5.688;2023-05-07T09:36:14;18.70;98.60
14771;DHT22;7477;45.222;5.688;2023-05-07T09:43:10;18.40;96.00
14771;DHT22;7477;45.222;5.688;2023-05-07T09:46:31;18.30;96.00
14771;DHT22;7477;45.222;5.688;2023-05-07T09:49:56;18.30;96.30
14771;DHT22;7477;45.222;5.688;2023-05-07T09:53:17;18.20;95.80
14771;DHT22;7477;45.222;5.688;2023-05-07T09:56:36;18.20;96.00
14771;DHT22;7477;45.222;5.688;2023-05-07T09:59:58;18.10;96.10
14771;DHT22;7477;45.222;5.688;2023-05-07T10:03:19;18.00;95.80
14771;DHT22;7477;45.222;5.688;2023-05-07T10:06:40;17.90;95.90
14771;DHT22;7477;45.222;5.688;2023-05-07T10:10:00;17.90;95.90
14771;DHT22;7477;45.222;5.688;2023-05-07T10:13:21;17.80;96.00
14771;DHT22;7477;45.222;5.688;2023-05-07T10:16:41;17.70;96.30
14771;DHT22;7477;45.222;5.688;2023-05-07T10:20:00;17.70;96.70
14771;DHT22;7477;45.222;5.688;2023-05-07T10:23:23;17.70;96.90
14771;DHT22;7477;45.222;5.688;2023-05-07T10:26:44;17.70;97.10
14771;DHT22;7477;45.222;5.688;2023-05-07T10:33:28;17.70;97.30
14771;DHT22;7477;45.222;5.688;2023-05-07T10:36:48;17.70;97.40
14771;DHT22;7477;45.222;5.688;2023-05-07T10:40:10;17.60;97.50
14771;DHT22;7477;45.222;5.688;2023-05-07T10:43:44;17.60;97.70
14771;DHT22;7477;45.222;5.688;2023-05-07T10:50:28;17.70;98.10
14771;DHT22;7477;45.222;5.688;2023-05-07T10:53:47;17.70;98.20
14771;DHT22;7477;45.222;5.688;2023-05-07T11:01:00;17.70;98.20
14771;DHT22;7477;45.222;5.688;2023-05-07T11:04:20;17.70;98.40
14771;DHT22;7477;45.222;5.688;2023-05-07T11:08:01;17.80;98.90
14771;DHT22;7477;45.222;5.688;2023-05-07T11:11:46;17.80;99.00
14771;DHT22;7477;45.222;5.688;2023-05-07T11:15:32;17.80;98.50
14771;DHT22;7477;45.222;5.688;2023-05-07T11:18:53;17.80;98.80
14771;DHT22;7477;45.222;5.688;2023-05-07T11:26:10;18.00;98.80
14771;DHT22;7477;45.222;5.688;2023-05-07T11:29:30;18.00;98.80
14771;DHT22;7477;45.222;5.688;2023-05-07T11:32:50;18.00;98.90
14771;DHT22;7477;45.222;5.688;2023-05-07T11:36:09;17.90;98.90
14771;DHT22;7477;45.222;5.688;2023-05-07T11:39:31;17.80;98.60
14771;DHT22;7477;45.222;5.688;2023-05-07T11:42:51;17.80;98.60
14771;DHT22;7477;45.222;5.688;2023-05-07T11:46:11;17.70;98.40
14771;DHT22;7477;45.222;5.688;2023-05-07T11:49:31;17.70;98.60
14771;DHT22;7477;45.222;5.688;2023-05-07T11:52:51;17.70;98.30
14771;DHT22;7477;45.222;5.688;2023-05-07T11:56:15;17.70;98.20
14771;DHT22;7477;45.222;5.688;2023-05-07T11:59:41;17.70;98.50
14771;DHT22;7477;45.222;5.688;2023-05-07T12:03:07;17.70;98.80
14771;DHT22;7477;45.222;5.688;2023-05-07T12:06:26;17.70;98.80
14771;DHT22;7477;45.222;5.688;2023-05-07T12:09:46;17.70;98.70
14771;DHT22;7477;45.222;5.688;2023-05-07T12:13:17;17.70;98.70
14771;DHT22;7477;45.222;5.688;2023-05-07T12:16:39;17.70;98.70
14771;DHT22;7477;45.222;5.688;2023-05-07T12:19:59;17.70;99.10
14771;DHT22;7477;45.222;5.688;2023-05-07T12:23:21;17.60;99.00
14771;DHT22;7477;45.222;5.688;2023-05-07T12:26:41;17.70;99.20
14771;DHT22;7477;45.222;5.688;2023-05-07T12:30:00;17.60;99.10
14771;DHT22;7477;45.222;5.688;2023-05-07T12:33:24;17.60;99.40
14771;DHT22;7477;45.222;5.688;2023-05-07T12:36:43;17.70;99.70
14771;DHT22;7477;45.222;5.688;2023-05-07T12:40:05;17.70;99.80
14771;DHT22;7477;45.222;5.688;2023-05-07T12:43:28;17.70;99.90
14771;DHT22;7477;45.222;5.688;2023-05-07T12:46:48;17.70;99.90
14771;DHT22;7477;45.222;5.688;2023-05-07T12:50:07;17.70;99.90
14771;DHT22;7477;45.222;5.688;2023-05-07T12:53:28;17.70;99.90
14771;DHT22;7477;45.222;5.688;2023-05-07T12:56:47;17.70;99.90
14771;DHT22;7477;45.222;5.688;2023-05-07T13:00:08;17.70;99.90
14771;DHT22;7477;45.222;5.688;2023-05-07T13:03:33;17.70;99.90
14771;DHT22;7477;45.222;5.688;2023-05-07T13:06:53;17.70;99.90
14771;DHT22;7477;45.222;5.688;2023-05-07T13:10:13;17.70;99.90
14771;DHT22;7477;45.222;5.688;2023-05-07T13:13:33;17.80;99.90
14771;DHT22;7477;45.222;5.688;2023-05-07T13:16:53;17.70;99.90
14771;DHT22;7477;45.222;5.688;2023-05-07T13:20:12;17.70;99.90
14771;DHT22;7477;45.222;5.688;2023-05-07T13:23:32;17.60;99.90
14771;DHT22;7477;45.222;5.688;2023-05-07T13:26:51;17.60;99.90
14771;DHT22;7477;45.222;5.688;2023-05-07T13:30:10;17.70;99.90
14771;DHT22;7477;45.222;5.688;2023-05-07T13:33:30;17.70;99.90
14771;DHT22;7477;45.222;5.688;2023-05-07T13:36:49;17.70;99.90
14771;DHT22;7477;45.222;5.688;2023-05-07T13:40:09;17.70;99.90
14771;DHT22;7477;45.222;5.688;2023-05-07T13:43:28;17.70;99.90
14771;DHT22;7477;45.222;5.688;2023-05-07T13:46:47;17.60;99.90
14771;DHT22;7477;45.222;5.688;2023-05-07T13:50:08;17.60;99.90
14771;DHT22;7477;45.222;5.688;2023-05-07T13:53:28;17.70;99.90
14771;DHT22;7477;45.222;5.688;2023-05-07T13:56:47;17.60;99.90
14771;DHT22;7477;45.222;5.688;2023-05-07T14:00:08;17.50;99.90
14771;DHT22;7477;45.222;5.688;2023-05-07T14:03:28;17.40;99.90
14771;DHT22;7477;45.222;5.688;2023-05-07T14:06:47;17.50;99.90
14771;DHT22;7477;45.222;5.688;2023-05-07T14:10:07;17.40;99.90
14771;DHT22;7477;45.222;5.688;2023-05-07T14:13:26;17.30;99.90
14771;DHT22;7477;45.222;5.688;2023-05-07T14:16:46;17.30;99.90
14771;DHT22;7477;45.222;5.688;2023-05-07T14:20:06;17.40;99.90
14771;DHT22;7477;45.222;5.688;2023-05-07T14:23:26;17.30;99.90
14771;DHT22;7477;45.222;5.688;2023-05-07T14:26:45;17.30;99.90
14771;DHT22;7477;45.222;5.688;2023-05-07T14:30:05;17.20;99.90
14771;DHT22;7477;45.222;5.688;2023-05-07T14:33:24;17.20;99.90
14771;DHT22;7477;45.222;5.688;2023-05-07T14:36:45;17.30;99.90
14771;DHT22;7477;45.222;5.688;2023-05-07T14:40:06;17.30;99.90
14771;DHT22;7477;45.222;5.688;2023-05-07T14:43:25;17.40;99.90
14771;DHT22;7477;45.222;5.688;2023-05-07T14:46:45;17.40;99.90
14771;DHT22;7477;45.222;5.688;2023-05-07T14:50:04;17.40;99.90
14771;DHT22;7477;45.222;5.688;2023-05-07T14:53:24;17.40;99.90
14771;DHT22;7477;45.222;5.688;2023-05-07T14:56:44;17.30;99.90
14771;DHT22;7477;45.222;5.688;2023-05-07T15:00:04;17.30;99.90
14771;DHT22;7477;45.222;5.688;2023-05-07T15:03:26;17.30;99.90
14771;DHT22;7477;45.222;5.688;2023-05-07T15:06:46;17.30;99.90
14771;DHT22;7477;45.222;5.688;2023-05-07T15:10:06;18.10;99.90
14771;DHT22;7477;45.222;5.688;2023-05-07T15:13:25;18.30;99.90
14771;DHT22;7477;45.222;5.688;2023-05-07T15:16:44;18.40;99.90
14771;DHT22;7477;45.222;5.688;2023-05-07T15:20:05;18.40;99.90
14771;DHT22;7477;45.222;5.688;2023-05-07T15:23:24;18.60;99.90
14771;DHT22;7477;45.222;5.688;2023-05-07T15:26:45;18.30;99.90
14771;DHT22;7477;45.222;5.688;2023-05-07T15:30:04;17.80;99.90
14771;DHT22;7477;45.222;5.688;2023-05-07T15:33:24;17.40;99.90
14771;DHT22;7477;45.222;5.688;2023-05-07T15:36:44;17.30;99.90
14771;DHT22;7477;45.222;5.688;2023-05-07T15:40:03;17.20;99.90
14771;DHT22;7477;45.222;5.688;2023-05-07T15:43:25;17.20;99.90
14771;DHT22;7477;45.222;5.688;2023-05-07T15:46:44;17.30;99.90
14771;DHT22;7477;45.222;5.688;2023-05-07T15:50:04;17.40;99.90
14771;DHT22;7477;45.222;5.688;2023-05-07T15:53:23;17.30;99.90
14771;DHT22;7477;45.222;5.688;2023-05-07T15:56:42;17.30;99.90
14771;DHT22;7477;45.222;5.688;2023-05-07T16:00:03;17.30;99.90
14771;DHT22;7477;45.222;5.688;2023-05-07T16:03:24;17.30;99.90
14771;DHT22;7477;45.222;5.688;2023-05-07T16:06:43;17.10;99.90
14771;DHT22;7477;45.222;5.688;2023-05-07T16:10:05;17.10;99.90
14771;DHT22;7477;45.222;5.688;2023-05-07T16:13:26;17.20;99.90
14771;DHT22;7477;45.222;5.688;2023-05-07T16:16:45;17.30;99.90
14771;DHT22;7477;45.222;5.688;2023-05-07T16:20:05;17.30;99.90
14771;DHT22;7477;45.222;5.688;2023-05-07T16:23:25;17.30;99.90
14771;DHT22;7477;45.222;5.688;2023-05-07T16:26:44;17.30;99.90
14771;DHT22;7477;45.222;5.688;2023-05-07T16:30:03;17.40;99.90
14771;DHT22;7477;45.222;5.688;2023-05-07T16:33:22;17.40;99.90
14771;DHT22;7477;45.222;5.688;2023-05-07T16:36:41;17.40;99.90
14771;DHT22;7477;45.222;5.688;2023-05-07T16:40:01;17.50;99.90
14771;DHT22;7477;45.222;5.688;2023-05-07T16:43:25;17.40;99.90
14771;DHT22;7477;45.222;5.688;2023-05-07T16:46:44;17.30;99.90
14771;DHT22;7477;45.222;5.688;2023-05-07T16:50:04;17.30;99.90
14771;DHT22;7477;45.222;5.688;2023-05-07T16:53:23;17.30;99.90
14771;DHT22;7477;45.222;5.688;2023-05-07T16:56:42;17.30;99.90
14771;DHT22;7477;45.222;5.688;2023-05-07T17:00:02;17.30;99.90
14771;DHT22;7477;45.222;5.688;2023-05-07T17:03:25;17.20;99.90
14771;DHT22;7477;45.222;5.688;2023-05-07T17:06:45;17.20;99.90
14771;DHT22;7477;45.222;5.688;2023-05-07T17:10:05;17.20;99.90
14771;DHT22;7477;45.222;5.688;2023-05-07T17:13:24;17.20;99.90
14771;DHT22;7477;45.222;5.688;2023-05-07T17:16:43;17.20;99.90
14771;DHT22;7477;45.222;5.688;2023-05-07T17:20:05;17.20;99.90
14771;DHT22;7477;45.222;5.688;2023-05-07T17:23:24;17.20;99.90
14771;DHT22;7477;45.222;5.688;2023-05-07T17:26:45;17.20;99.90
14771;DHT22;7477;45.222;5.688;2023-05-07T17:30:05;17.20;99.90
14771;DHT22;7477;45.222;5.688;2023-05-07T17:33:25;17.10;99.90
14771;DHT22;7477;45.222;5.688;2023-05-07T17:36:45;17.10;99.90
14771;DHT22;7477;45.222;5.688;2023-05-07T17:40:04;17.10;99.90
14771;DHT22;7477;45.222;5.688;2023-05-07T17:43:24;17.10;99.90
14771;DHT22;7477;45.222;5.688;2023-05-07T17:46:43;17.00;99.90
14771;DHT22;7477;45.222;5.688;2023-05-07T17:50:02;17.00;99.90
14771;DHT22;7477;45.222;5.688;2023-05-07T17:53:27;17.00;99.90
14771;DHT22;7477;45.222;5.688;2023-05-07T17:56:46;17.00;99.90
14771;DHT22;7477;45.222;5.688;2023-05-07T18:00:06;15.60;99.90
14771;DHT22;7477;45.222;5.688;2023-05-07T18:03:26;17.00;99.90
14771;DHT22;7477;45.222;5.688;2023-05-07T18:06:47;17.00;99.90
14771;DHT22;7477;45.222;5.688;2023-05-07T18:10:06;16.90;99.90
14771;DHT22;7477;45.222;5.688;2023-05-07T18:13:26;16.90;99.90
14771;DHT22;7477;45.222;5.688;2023-05-07T18:16:45;17.00;99.90
14771;DHT22;7477;45.222;5.688;2023-05-07T18:20:05;17.00;99.90
14771;DHT22;7477;45.222;5.688;2023-05-07T18:23:27;16.90;99.90
14771;DHT22;7477;45.222;5.688;2023-05-07T18:26:46;16.90;99.90
14771;DHT22;7477;45.222;5.688;2023-05-07T18:30:10;16.90;99.90
14771;DHT22;7477;45.222;5.688;2023-05-07T18:33:30;16.90;99.90
14771;DHT22;7477;45.222;5.688;2023-05-07T18:36:49;16.80;99.90
14771;DHT22;7477;45.222;5.688;2023-05-07T18:40:09;16.90;99.90
14771;DHT22;7477;45.222;5.688;2023-05-07T18:43:28;16.80;99.90
14771;DHT22;7477;45.222;5.688;2023-05-07T18:46:48;16.90;99.90
14771;DHT22;7477;45.222;5.688;2023-05-07T18:50:07;16.90;99.90
14771;DHT22;7477;45.222;5.688;2023-05-07T18:53:28;16.80;99.90
14771;DHT22;7477;45.222;5.688;2023-05-07T18:56:47;16.80;99.90
14771;DHT22;7477;45.222;5.688;2023-05-07T19:00:07;16.80;99.90
14771;DHT22;7477;45.222;5.688;2023-05-07T19:03:28;16.80;99.90
14771;DHT22;7477;45.222;5.688;2023-05-07T19:06:48;16.70;99.90
14771;DHT22;7477;45.222;5.688;2023-05-07T19:10:07;16.70;99.90
14771;DHT22;7477;45.222;5.688;2023-05-07T19:13:27;16.70;99.90
14771;DHT22;7477;45.222;5.688;2023-05-07T19:16:46;16.60;99.90
14771;DHT22;7477;45.222;5.688;2023-05-07T19:20:06;16.60;99.90
14771;DHT22;7477;45.222;5.688;2023-05-07T19:23:26;16.60;99.90
14771;DHT22;7477;45.222;5.688;2023-05-07T19:26:45;16.60;99.90
14771;DHT22;7477;45.222;5.688;2023-05-07T19:30:06;16.50;99.90
14771;DHT22;7477;45.222;5.688;2023-05-07T19:33:25;16.50;99.90
14771;DHT22;7477;45.222;5.688;2023-05-07T19:36:47;16.50;99.90
14771;DHT22;7477;45.222;5.688;2023-05-07T19:40:06;16.40;99.90
14771;DHT22;7477;45.222;5.688;2023-05-07T19:43:27;16.30;99.90
14771;DHT22;7477;45.222;5.688;2023-05-07T19:46:50;16.30;99.90
14771;DHT22;7477;45.222;5.688;2023-05-07T19:50:10;16.30;99.90
14771;DHT22;7477;45.222;5.688;2023-05-07T19:53:30;16.20;99.90
14771;DHT22;7477;45.222;5.688;2023-05-07T19:56:49;16.20;99.90
14771;DHT22;7477;45.222;5.688;2023-05-07T20:00:08;16.10;99.90
14771;DHT22;7477;45.222;5.688;2023-05-07T20:03:31;16.10;99.90
14771;DHT22;7477;45.222;5.688;2023-05-07T20:06:51;16.10;99.90
14771;DHT22;7477;45.222;5.688;2023-05-07T20:10:10;16.10;99.90
14771;DHT22;7477;45.222;5.688;2023-05-07T20:13:29;16.10;99.90
14771;DHT22;7477;45.222;5.688;2023-05-07T20:16:49;16.00;99.90
14771;DHT22;7477;45.222;5.688;2023-05-07T20:20:09;16.10;99.90
14771;DHT22;7477;45.222;5.688;2023-05-07T20:23:28;16.10;99.90
14771;DHT22;7477;45.222;5.688;2023-05-07T20:26:48;16.00;99.90
14771;DHT22;7477;45.222;5.688;2023-05-07T20:30:07;16.00;99.90
14771;DHT22;7477;45.222;5.688;2023-05-07T20:33:28;15.90;99.90
14771;DHT22;7477;45.222;5.688;2023-05-07T20:36:48;15.90;99.90
14771;DHT22;7477;45.222;5.688;2023-05-07T20:40:08;15.90;99.90
14771;DHT22;7477;45.222;5.688;2023-05-07T20:43:27;15.80;99.90
14771;DHT22;7477;45.222;5.688;2023-05-07T20:46:46;15.90;99.90
14771;DHT22;7477;45.222;5.688;2023-05-07T20:50:06;15.80;99.90
14771;DHT22;7477;45.222;5.688;2023-05-07T20:53:29;15.80;99.90
14771;DHT22;7477;45.222;5.688;2023-05-07T20:56:48;15.80;99.90
14771;DHT22;7477;45.222;5.688;2023-05-07T21:00:08;15.90;99.90
14771;DHT22;7477;45.222;5.688;2023-05-07T21:03:27;15.90;99.90
14771;DHT22;7477;45.222;5.688;2023-05-07T21:06:46;15.80;99.90
14771;DHT22;7477;45.222;5.688;2023-05-07T21:10:06;15.80;99.90
14771;DHT22;7477;45.222;5.688;2023-05-07T21:13:25;15.70;99.90
14771;DHT22;7477;45.222;5.688;2023-05-07T21:16:45;15.70;99.90
14771;DHT22;7477;45.222;5.688;2023-05-07T21:20:05;15.70;99.90
14771;DHT22;7477;45.222;5.688;2023-05-07T21:23:24;15.70;99.90
14771;DHT22;7477;45.222;5.688;2023-05-07T21:26:43;15.70;99.90
14771;DHT22;7477;45.222;5.688;2023-05-07T21:30:03;15.70;99.90
14771;DHT22;7477;45.222;5.688;2023-05-07T21:33:22;15.70;99.90
14771;DHT22;7477;45.222;5.688;2023-05-07T21:36:41;15.70;99.90
14771;DHT22;7477;45.222;5.688;2023-05-07T21:40:01;15.70;99.90